Time;durP1;ratioP1;P1;durP2;ratioP2;P2;SDS_P1;SDS_P2;PMS_P1;PMS_P2;Temp;Humidity;BMP_temperature;BMP_pressure;BME280_temperature;BME280_humidity;BME280_pressure;Samples;Min_cycle;Max_cycle;Signal;HPM_P1;HPM_P2
2020/12/06 00:01:25;;;;;;;1.33;1.30;;;4.00;98.00;;;;;;5090645;28;20448;-61
2020/12/06 00:03:51;;;;;;;1.63;1.53;;;4.00;98.00;;;;;;5088786;28;20813;-61
2020/12/06 00:06:20;;;;;;;2.43;1.40;;;4.00;98.00;;;;;;5090554;28;20646;-61
2020/12/06 00:08:47;;;;;;;2.03;1.50;;;3.90;98.00;;;;;;5088993;28;20488;-62
2020/12/06 00:11:15;;;;;;;6.70;2.27;;;3.90;98.00;;;;;;5090498;28;20795;-61
2020/12/06 00:13:42;;;;;;;2.90;1.80;;;3.90;98.00;;;;;;5089370;28;20450;-62
2020/12/06 00:16:12;;;;;;;1.40;1.33;;;3.90;98.00;;;;;;5090492;28;21023;-61
2020/12/06 00:18:39;;;;;;;3.43;2.60;;;3.90;98.00;;;;;;5089169;28;20506;-61
2020/12/06 00:21:06;;;;;;;1.20;1.10;;;3.90;98.00;;;;;;5090499;28;20447;-61
2020/12/06 00:23:32;;;;;;;2.10;1.83;;;4.00;98.00;;;;;;5089018;28;20452;-61
2020/12/06 00:25:58;;;;;;;5.90;2.17;;;4.00;98.00;;;;;;5090528;28;20503;-61
2020/12/06 00:28:25;;;;;;;2.23;1.37;;;4.10;98.00;;;;;;5090486;28;20460;-61
2020/12/06 00:30:51;;;;;;;3.20;1.30;;;4.10;98.00;;;;;;5088836;28;20514;-62
2020/12/06 00:33:19;;;;;;;1.10;1.10;;;4.00;98.00;;;;;;5090371;28;20455;-62
2020/12/06 00:35:45;;;;;;;1.63;1.40;;;3.80;98.00;;;;;;5089102;28;20484;-61
2020/12/06 00:38:12;;;;;;;1.57;1.40;;;3.90;98.00;;;;;;5090316;28;20464;-62
2020/12/06 00:40:38;;;;;;;1.50;1.20;;;3.80;98.00;;;;;;5088830;28;20456;-61
2020/12/06 00:43:05;;;;;;;1.33;1.27;;;3.70;98.00;;;;;;5090372;28;20457;-61
2020/12/06 00:45:32;;;;;;;1.40;1.30;;;3.70;98.00;;;;;;5088819;28;20451;-61
2020/12/06 00:47:58;;;;;;;1.50;1.47;;;3.70;98.00;;;;;;5090361;28;20456;-62
2020/12/06 00:50:26;;;;;;;1.10;1.10;;;3.60;98.00;;;;;;5088969;28;20536;-62
2020/12/06 00:52:52;;;;;;;1.50;1.30;;;3.70;98.00;;;;;;5090335;28;20469;-62
2020/12/06 00:55:19;;;;;;;2.17;2.00;;;3.90;98.00;;;;;;5091091;28;20847;-61
2020/12/06 00:57:47;;;;;;;1.80;1.77;;;3.80;98.00;;;;;;5094160;28;20523;-61
2020/12/06 01:00:14;;;;;;;2.53;1.87;;;3.70;98.00;;;;;;5092839;28;20471;-61
2020/12/06 01:02:41;;;;;;;1.57;1.37;;;3.70;98.00;;;;;;5093966;28;20494;-61
2020/12/06 01:05:08;;;;;;;1.10;1.10;;;3.70;98.00;;;;;;5092691;28;20865;-61
2020/12/06 01:07:40;;;;;;;6.40;1.83;;;3.80;98.00;;;;;;5093813;28;20447;-61
2020/12/06 01:10:08;;;;;;;2.03;1.47;;;3.80;98.00;;;;;;5092622;28;20836;-62
2020/12/06 01:12:35;;;;;;;1.40;1.40;;;3.80;98.00;;;;;;5093585;28;21101;-63
2020/12/06 01:15:05;;;;;;;2.07;1.83;;;3.70;98.00;;;;;;5091082;28;20846;-61
2020/12/06 01:17:32;;;;;;;1.10;0.90;;;3.70;98.00;;;;;;5093466;28;20463;-61
2020/12/06 01:19:58;;;;;;;1.10;1.10;;;3.60;98.00;;;;;;5092246;28;20451;-61
2020/12/06 01:22:25;;;;;;;1.73;1.20;;;3.60;98.00;;;;;;5093425;28;20447;-61
2020/12/06 01:24:53;;;;;;;1.43;1.10;;;3.70;98.00;;;;;;5092228;28;20517;-61
2020/12/06 01:27:19;;;;;;;2.03;1.57;;;3.70;98.00;;;;;;5093297;28;20949;-62
2020/12/06 01:29:46;;;;;;;2.00;1.87;;;3.70;98.00;;;;;;5092096;28;20505;-61
2020/12/06 01:32:12;;;;;;;3.87;1.80;;;3.60;98.00;;;;;;5093188;28;20508;-61
2020/12/06 01:34:39;;;;;;;1.67;1.67;;;3.70;98.00;;;;;;5091754;28;20494;-61
2020/12/06 01:37:06;;;;;;;1.30;1.20;;;3.80;98.00;;;;;;5093163;28;20447;-61
2020/12/06 01:39:32;;;;;;;1.20;1.13;;;3.70;98.00;;;;;;5092180;28;20940;-62
2020/12/06 01:42:00;;;;;;;1.60;1.50;;;3.50;98.00;;;;;;5093174;28;20481;-62
2020/12/06 01:44:27;;;;;;;2.60;1.50;;;3.40;98.00;;;;;;5092905;28;20984;-61
2020/12/06 01:46:56;;;;;;;1.67;1.57;;;3.40;98.00;;;;;;5091543;28;20486;-62
2020/12/06 01:49:24;;;;;;;2.90;1.47;;;3.40;98.00;;;;;;5093896;28;20476;-60
2020/12/06 01:51:56;;;;;;;1.80;1.60;;;3.50;98.00;;;;;;5092740;28;20571;-61
2020/12/06 01:54:23;;;;;;;2.27;1.27;;;3.40;98.00;;;;;;5093722;28;20464;-62
2020/12/06 01:56:50;;;;;;;1.77;1.23;;;3.30;98.00;;;;;;5091981;28;21108;-61
2020/12/06 01:59:18;;;;;;;1.10;1.00;;;3.40;98.00;;;;;;5092597;28;20493;-61
2020/12/06 02:01:55;;;;;;;1.30;1.20;;;3.40;98.00;;;;;;5091222;28;20868;-61
2020/12/06 02:04:21;;;;;;;1.90;1.40;;;3.50;98.00;;;;;;5092619;28;20509;-61
2020/12/06 02:06:48;;;;;;;1.20;1.20;;;3.50;98.00;;;;;;5090656;28;20469;-61
2020/12/06 02:09:15;;;;;;;4.80;1.83;;;3.60;98.00;;;;;;5092547;28;20451;-61
2020/12/06 02:11:41;;;;;;;1.67;1.60;;;3.60;98.00;;;;;;5091183;28;20451;-61
2020/12/06 02:14:11;;;;;;;1.30;1.23;;;3.50;98.00;;;;;;5092437;28;20444;-61
2020/12/06 02:16:38;;;;;;;3.60;2.20;;;3.50;98.00;;;;;;5090919;28;20458;-61
2020/12/06 02:19:06;;;;;;;1.60;1.47;;;3.50;98.00;;;;;;5092531;28;20579;-61
2020/12/06 02:21:35;;;;;;;1.80;1.30;;;3.60;98.00;;;;;;5090965;28;20539;-61
2020/12/06 02:24:02;;;;;;;2.07;1.93;;;3.70;98.00;;;;;;5092305;28;20486;-61
2020/12/06 02:26:29;;;;;;;1.27;1.23;;;3.60;98.00;;;;;;5090806;28;20513;-61
2020/12/06 02:28:57;;;;;;;1.70;1.60;;;3.70;98.00;;;;;;5092386;28;20512;-61
2020/12/06 02:31:24;;;;;;;1.93;1.40;;;3.60;98.00;;;;;;5090972;28;20486;-61
2020/12/06 02:33:50;;;;;;;1.20;1.10;;;3.60;98.00;;;;;;5092242;28;20836;-62
2020/12/06 02:36:17;;;;;;;1.37;1.30;;;3.60;98.00;;;;;;5090652;28;21024;-62
2020/12/06 02:38:44;;;;;;;1.40;1.30;;;3.60;98.00;;;;;;5091973;28;20459;-61
2020/12/06 02:41:10;;;;;;;1.43;1.20;;;3.60;98.00;;;;;;5090566;28;20477;-61
2020/12/06 02:43:37;;;;;;;1.63;1.57;;;3.50;98.00;;;;;;5091897;28;20459;-60
2020/12/06 02:46:03;;;;;;;1.10;1.10;;;3.40;98.00;;;;;;5090241;28;20451;-61
2020/12/06 02:48:30;;;;;;;1.53;1.47;;;3.50;98.00;;;;;;5091740;28;20478;-61
2020/12/06 02:50:57;;;;;;;1.30;1.23;;;3.50;98.00;;;;;;5090517;28;20990;-61
2020/12/06 02:53:24;;;;;;;1.33;1.20;;;3.50;98.00;;;;;;5091695;28;20448;-61
2020/12/06 02:55:51;;;;;;;1.20;1.10;;;3.60;98.00;;;;;;5090194;28;20518;-61
2020/12/06 02:58:18;;;;;;;1.37;1.33;;;3.60;98.00;;;;;;5091635;28;20569;-61
2020/12/06 03:00:44;;;;;;;1.83;1.57;;;3.70;98.00;;;;;;5090071;28;20972;-62
2020/12/06 03:03:10;;;;;;;1.50;1.40;;;3.80;98.00;;;;;;5091431;28;21145;-61
2020/12/06 03:05:38;;;;;;;1.20;1.20;;;3.60;98.00;;;;;;5090539;28;20949;-62
2020/12/06 03:08:04;;;;;;;1.67;1.40;;;3.70;98.00;;;;;;5091340;28;20875;-61
2020/12/06 03:10:31;;;;;;;1.60;1.50;;;3.70;98.00;;;;;;5091401;28;20440;-62
2020/12/06 03:13:00;;;;;;;3.43;1.87;;;3.70;98.00;;;;;;5089957;28;20505;-62
2020/12/06 03:15:26;;;;;;;1.30;1.13;;;3.80;98.00;;;;;;5089769;28;20487;-62
2020/12/06 03:17:53;;;;;;;2.27;2.07;;;3.90;98.00;;;;;;5089034;28;20459;-61
2020/12/06 03:20:19;;;;;;;2.70;1.10;;;3.90;98.00;;;;;;5091291;28;20950;-62
2020/12/06 03:22:47;;;;;;;3.93;2.40;;;3.80;98.00;;;;;;5089513;28;20790;-61
2020/12/06 03:25:13;;;;;;;1.90;1.53;;;3.80;98.00;;;;;;5090035;28;21040;-61
2020/12/06 03:27:39;;;;;;;1.37;1.37;;;3.80;98.00;;;;;;5089158;28;20447;-61
2020/12/06 03:30:07;;;;;;;1.47;1.33;;;3.80;98.00;;;;;;5091000;28;20547;-61
2020/12/06 03:32:36;;;;;;;1.97;1.63;;;3.70;98.00;;;;;;5089663;28;20505;-62
2020/12/06 03:35:02;;;;;;;2.23;2.07;;;3.70;98.00;;;;;;5090230;28;21012;-61
2020/12/06 03:37:28;;;;;;;1.70;1.60;;;3.70;98.00;;;;;;5089303;28;20491;-61
2020/12/06 03:39:55;;;;;;;1.83;1.73;;;3.80;98.00;;;;;;5090900;28;20452;-61
2020/12/06 03:42:22;;;;;;;1.40;1.40;;;3.90;98.00;;;;;;5089510;28;20448;-61
2020/12/06 03:44:49;;;;;;;1.50;1.40;;;3.80;98.00;;;;;;5090812;28;20447;-61
2020/12/06 03:47:17;;;;;;;1.70;1.43;;;3.80;98.00;;;;;;5089652;28;20452;-61
2020/12/06 03:49:43;;;;;;;1.53;1.20;;;3.60;98.00;;;;;;5090727;28;20452;-61
2020/12/06 03:52:20;;;;;;;2.43;1.40;;;3.50;98.00;;;;;;5089599;28;20452;-61
2020/12/06 03:54:48;;;;;;;1.97;1.40;;;3.50;98.00;;;;;;5090900;28;20487;-61
2020/12/06 03:57:16;;;;;;;1.30;1.00;;;3.50;98.00;;;;;;5089624;28;20512;-61
2020/12/06 03:59:43;;;;;;;1.20;1.10;;;3.50;98.00;;;;;;5090621;28;20459;-62
2020/12/06 04:02:09;;;;;;;2.13;2.03;;;3.60;98.00;;;;;;5089296;28;20812;-61
2020/12/06 04:04:37;;;;;;;1.40;1.30;;;3.80;98.00;;;;;;5090562;28;20999;-61
2020/12/06 04:07:03;;;;;;;1.10;0.90;;;3.70;98.00;;;;;;5089379;28;20486;-61
2020/12/06 04:09:30;;;;;;;1.50;1.17;;;3.80;98.00;;;;;;5090635;28;20444;-61
2020/12/06 04:11:56;;;;;;;2.03;1.53;;;4.00;98.00;;;;;;5089162;28;20540;-62
2020/12/06 04:14:23;;;;;;;1.70;1.43;;;4.10;98.00;;;;;;5090454;28;20447;-62
2020/12/06 04:16:49;;;;;;;1.80;1.57;;;4.00;98.00;;;;;;5089121;28;20904;-61
2020/12/06 04:19:16;;;;;;;1.67;1.63;;;4.00;98.00;;;;;;5090557;28;20874;-61
2020/12/06 04:21:43;;;;;;;1.50;1.47;;;4.00;98.00;;;;;;5089029;28;20552;-62
2020/12/06 04:24:12;;;;;;;1.70;1.50;;;3.90;98.00;;;;;;5090574;28;20472;-61
2020/12/06 04:26:38;;;;;;;1.77;1.67;;;4.00;98.00;;;;;;5089084;28;20455;-61
2020/12/06 04:29:05;;;;;;;1.50;1.40;;;4.20;98.00;;;;;;5092163;28;20456;-62
2020/12/06 04:31:32;;;;;;;1.50;1.50;;;4.00;98.00;;;;;;5094305;28;20477;-61
2020/12/06 04:33:58;;;;;;;1.20;1.10;;;3.80;98.00;;;;;;5093027;28;20487;-62
2020/12/06 04:36:25;;;;;;;1.27;1.20;;;3.80;98.00;;;;;;5093132;28;20753;-61
2020/12/06 04:38:52;;;;;;;1.20;1.10;;;3.80;98.00;;;;;;5092939;28;20452;-61
2020/12/06 04:41:22;;;;;;;1.60;1.27;;;3.90;98.00;;;;;;5094366;28;20509;-61
2020/12/06 04:43:49;;;;;;;1.30;1.20;;;4.10;98.00;;;;;;5092889;28;20456;-61
2020/12/06 04:46:16;;;;;;;1.20;1.20;;;4.00;98.00;;;;;;5094553;28;20462;-61
2020/12/06 04:48:56;;;;;;;1.33;1.30;;;4.10;98.00;;;;;;5092968;28;20509;-62
2020/12/06 04:51:27;;;;;;;1.10;0.90;;;4.10;98.00;;;;;;5094095;28;20455;-62
2020/12/06 04:54:02;;;;;;;1.50;1.40;;;4.10;98.00;;;;;;5092517;28;20868;-61
2020/12/06 04:56:29;;;;;;;1.10;0.90;;;4.00;98.00;;;;;;5093815;28;20483;-61
2020/12/06 04:58:58;;;;;;;1.40;1.10;;;3.90;98.00;;;;;;5092396;28;20505;-62
2020/12/06 05:01:30;;;;;;;1.70;1.37;;;3.90;98.00;;;;;;5093870;28;20812;-61
2020/12/06 05:03:59;;;;;;;13.20;1.77;;;4.00;98.00;;;;;;5092401;28;20513;-62
2020/12/06 05:06:29;;;;;;;1.83;1.33;;;4.00;98.00;;;;;;5093814;28;20799;-61
2020/12/06 05:08:58;;;;;;;1.67;1.63;;;3.90;98.00;;;;;;5092320;28;20905;-61
2020/12/06 05:11:25;;;;;;;1.40;1.10;;;3.90;98.00;;;;;;5093482;28;20459;-61
2020/12/06 05:13:52;;;;;;;1.30;1.17;;;3.90;98.00;;;;;;5092315;28;20458;-61
2020/12/06 05:16:20;;;;;;;1.53;1.50;;;3.90;98.00;;;;;;5093690;28;20509;-61
2020/12/06 05:18:47;;;;;;;1.73;1.20;;;3.80;98.00;;;;;;5092201;28;20959;-62
2020/12/06 05:21:14;;;;;;;1.20;1.20;;;3.80;98.00;;;;;;5093513;28;20451;-62
2020/12/06 05:23:41;;;;;;;1.67;1.50;;;3.90;98.00;;;;;;5092363;28;20527;-62
2020/12/06 05:26:09;;;;;;;1.40;1.30;;;3.70;98.00;;;;;;5093605;28;20536;-62
2020/12/06 05:28:36;;;;;;;3.27;1.77;;;3.60;98.00;;;;;;5091980;28;20474;-60
2020/12/06 05:31:03;;;;;;;1.47;1.47;;;3.50;98.00;;;;;;5093321;28;20988;-61
2020/12/06 05:33:30;;;;;;;1.30;1.30;;;3.50;98.00;;;;;;5091881;28;20452;-62
2020/12/06 05:36:00;;;;;;;2.50;2.00;;;3.60;98.00;;;;;;5093152;28;20514;-62
2020/12/06 05:38:27;;;;;;;1.10;1.00;;;3.70;98.00;;;;;;5091704;28;20460;-61
2020/12/06 05:40:56;;;;;;;3.60;2.47;;;3.80;98.00;;;;;;5092353;28;20950;-61
2020/12/06 05:43:28;;;;;;;2.90;1.97;;;3.80;98.00;;;;;;5091556;28;21035;-61
2020/12/06 05:46:08;;;;;;;1.10;1.00;;;3.90;98.00;;;;;;5092989;28;20448;-62
2020/12/06 05:48:36;;;;;;;2.73;2.13;;;3.90;98.00;;;;;;5091287;28;20491;-61
2020/12/06 05:51:03;;;;;;;1.40;1.30;;;4.00;98.00;;;;;;5091559;28;20460;-62
2020/12/06 05:53:32;;;;;;;1.10;1.10;;;4.10;98.00;;;;;;5091467;28;20509;-61
2020/12/06 05:56:05;;;;;;;1.10;1.00;;;4.00;98.00;;;;;;5092677;28;20545;-62
2020/12/06 05:58:34;;;;;;;1.20;1.00;;;3.90;98.00;;;;;;5091279;28;20566;-61
2020/12/06 06:01:01;;;;;;;3.43;2.60;;;3.90;98.00;;;;;;5092681;28;20467;-61
2020/12/06 06:03:29;;;;;;;1.30;1.20;;;3.90;98.00;;;;;;5091194;28;20456;-61
2020/12/06 06:05:56;;;;;;;2.27;2.07;;;3.80;98.00;;;;;;5092588;28;20509;-62
2020/12/06 06:08:26;;;;;;;1.30;1.17;;;3.80;98.00;;;;;;5091355;28;20968;-61
2020/12/06 06:11:21;;;;;;;1.20;1.10;;;3.60;98.00;;;;;;5092517;28;20853;-61
2020/12/06 06:13:56;;;;;;;1.10;1.00;;;3.50;98.00;;;;;;5090886;28;20456;-63
2020/12/06 06:16:24;;;;;;;1.70;1.60;;;3.50;98.00;;;;;;5090793;28;21063;-61
2020/12/06 06:18:52;;;;;;;1.70;1.53;;;3.60;98.00;;;;;;5090935;28;20456;-61
2020/12/06 06:21:22;;;;;;;2.33;1.70;;;3.60;98.00;;;;;;5092453;28;20460;-61
2020/12/06 06:23:53;;;;;;;1.10;1.00;;;3.50;98.00;;;;;;5090566;28;20518;-61
2020/12/06 06:26:24;;;;;;;1.10;0.93;;;3.50;98.00;;;;;;5091726;28;20456;-61
2020/12/06 06:28:53;;;;;;;2.53;1.53;;;3.60;98.00;;;;;;5090666;28;20455;-61
2020/12/06 06:31:21;;;;;;;2.10;1.70;;;3.60;98.00;;;;;;5092258;28;20452;-61
2020/12/06 06:33:49;;;;;;;1.73;1.60;;;3.60;98.00;;;;;;5090729;28;20451;-61
2020/12/06 06:36:20;;;;;;;1.20;1.10;;;3.70;98.00;;;;;;5091988;28;20516;-61
2020/12/06 06:38:48;;;;;;;1.10;0.93;;;3.70;98.00;;;;;;5090471;28;20926;-61
2020/12/06 06:41:15;;;;;;;1.97;1.30;;;3.60;98.00;;;;;;5091956;28;20452;-61
2020/12/06 06:43:42;;;;;;;1.57;1.37;;;3.60;98.00;;;;;;5090441;28;20456;-61
2020/12/06 06:46:12;;;;;;;1.20;1.13;;;3.50;98.00;;;;;;5091873;28;21001;-61
2020/12/06 06:48:39;;;;;;;3.00;2.30;;;3.50;98.00;;;;;;5090437;28;20460;-63
2020/12/06 06:51:06;;;;;;;1.57;1.10;;;3.60;98.00;;;;;;5091739;28;20455;-61
2020/12/06 06:53:33;;;;;;;1.10;1.10;;;3.60;98.00;;;;;;5090433;28;20562;-62
2020/12/06 06:56:01;;;;;;;1.30;1.30;;;3.60;98.00;;;;;;5090959;28;20815;-61
2020/12/06 06:58:30;;;;;;;1.20;1.20;;;3.60;98.00;;;;;;5091682;28;20474;-61
2020/12/06 07:01:16;;;;;;;1.60;1.50;;;3.70;98.00;;;;;;5090142;28;20464;-61
2020/12/06 07:03:44;;;;;;;1.70;1.63;;;3.70;98.00;;;;;;5090856;28;20554;-61
2020/12/06 07:06:11;;;;;;;1.43;1.33;;;3.70;98.00;;;;;;5091203;28;20444;-62
2020/12/06 07:08:45;;;;;;;2.90;1.50;;;3.50;98.00;;;;;;5091598;28;20513;-61
2020/12/06 07:11:12;;;;;;;1.67;1.57;;;3.40;98.00;;;;;;5090110;28;20456;-61
2020/12/06 07:13:41;;;;;;;1.60;1.50;;;3.50;98.00;;;;;;5091617;28;20999;-61
2020/12/06 07:16:11;;;;;;;1.10;0.90;;;3.40;98.00;;;;;;5089433;28;20484;-62
2020/12/06 07:18:46;;;;;;;3.50;2.17;;;3.50;98.00;;;;;;5091394;28;20527;-62
2020/12/06 07:21:14;;;;;;;2.03;1.50;;;3.50;98.00;;;;;;5089799;28;20451;-61
2020/12/06 07:23:41;;;;;;;2.07;1.60;;;3.50;98.00;;;;;;5091156;28;20452;-62
2020/12/06 07:26:07;;;;;;;2.60;2.40;;;3.60;98.00;;;;;;5089743;28;20505;-63
2020/12/06 07:28:34;;;;;;;1.73;1.67;;;3.70;98.00;;;;;;5091073;28;20452;-62
2020/12/06 07:31:01;;;;;;;2.17;1.80;;;3.70;98.00;;;;;;5089804;28;20447;-61
2020/12/06 07:33:28;;;;;;;1.73;1.27;;;3.60;98.00;;;;;;5090976;28;20943;-63
2020/12/06 07:35:55;;;;;;;6.43;1.10;;;3.70;98.00;;;;;;5089650;28;20916;-61
2020/12/06 07:38:22;;;;;;;2.03;1.57;;;3.80;98.00;;;;;;5091075;28;20505;-62
2020/12/06 07:41:00;;;;;;;1.50;1.40;;;4.00;98.00;;;;;;5089567;28;20451;-62
2020/12/06 07:43:26;;;;;;;1.10;1.00;;;4.00;98.00;;;;;;5091057;28;20539;-61
2020/12/06 07:45:53;;;;;;;3.20;2.00;;;4.20;98.00;;;;;;5089762;28;20467;-62
2020/12/06 07:48:23;;;;;;;1.10;1.00;;;4.10;98.00;;;;;;5091921;28;20631;-61
2020/12/06 07:50:49;;;;;;;1.10;0.90;;;4.00;98.00;;;;;;5089673;28;20487;-62
2020/12/06 07:53:17;;;;;;;1.10;1.00;;;4.00;98.00;;;;;;5091905;28;20508;-62
2020/12/06 07:55:43;;;;;;;1.70;1.60;;;3.90;98.00;;;;;;5089766;28;20537;-61
2020/12/06 07:58:17;;;;;;;1.10;1.00;;;3.80;98.00;;;;;;5090897;28;20455;-62
2020/12/06 08:00:43;;;;;;;1.20;1.20;;;4.00;98.00;;;;;;5088941;28;20456;-61
2020/12/06 08:03:14;;;;;;;1.20;1.10;;;3.90;98.00;;;;;;5091385;28;20448;-61
2020/12/06 08:05:43;;;;;;;1.63;1.13;;;4.00;98.00;;;;;;5095718;28;20505;-61
2020/12/06 08:08:13;;;;;;;1.17;1.10;;;4.00;98.00;;;;;;5097355;28;20456;-61
2020/12/06 08:10:42;;;;;;;1.67;1.47;;;3.90;98.00;;;;;;5095643;28;20451;-61
2020/12/06 08:13:10;;;;;;;2.10;1.57;;;3.80;98.00;;;;;;5097393;28;20838;-61
2020/12/06 08:15:37;;;;;;;3.13;2.20;;;3.80;98.00;;;;;;5095590;28;20486;-62
2020/12/06 08:18:11;;;;;;;1.50;1.47;;;3.80;98.00;;;;;;5097380;28;20497;-62
2020/12/06 08:20:38;;;;;;;1.50;1.30;;;3.90;98.00;;;;;;5095731;28;20969;-61
2020/12/06 08:23:04;;;;;;;2.73;2.20;;;4.00;98.00;;;;;;5097442;28;20448;-61
2020/12/06 08:25:32;;;;;;;2.33;1.87;;;3.90;98.00;;;;;;5095640;28;20455;-61
2020/12/06 08:28:01;;;;;;;1.83;1.50;;;4.00;98.00;;;;;;5097357;28;20448;-61
2020/12/06 08:30:29;;;;;;;1.20;1.20;;;4.10;98.00;;;;;;5095942;28;20517;-61
2020/12/06 08:32:57;;;;;;;5.43;2.87;;;4.20;98.00;;;;;;5097401;28;20452;-61
2020/12/06 08:35:38;;;;;;;2.40;1.73;;;4.20;98.00;;;;;;5095596;28;20867;-61
2020/12/06 08:38:18;;;;;;;3.30;1.83;;;4.20;98.00;;;;;;5097486;28;20456;-61
2020/12/06 08:40:59;;;;;;;2.70;2.53;;;4.20;98.00;;;;;;5095891;28;20477;-61
2020/12/06 08:43:46;;;;;;;6.20;1.97;;;4.20;98.00;;;;;;5097511;28;20450;-61
2020/12/06 08:46:14;;;;;;;2.20;2.03;;;4.00;98.00;;;;;;5095568;28;20996;-61
2020/12/06 08:48:41;;;;;;;1.27;1.23;;;4.00;98.00;;;;;;5097166;28;21016;-61
2020/12/06 08:51:22;;;;;;;1.40;1.10;;;4.10;98.00;;;;;;5095322;28;20997;-61
2020/12/06 08:53:49;;;;;;;1.20;1.10;;;4.10;98.00;;;;;;5096982;28;20746;-61
2020/12/06 08:56:30;;;;;;;1.20;1.10;;;4.00;98.00;;;;;;5095367;28;20577;-61
2020/12/06 08:59:02;;;;;;;1.37;1.17;;;4.10;98.00;;;;;;5096856;28;20501;-61
2020/12/06 09:01:29;;;;;;;1.77;1.67;;;4.20;98.00;;;;;;5095405;28;20941;-60
2020/12/06 09:03:55;;;;;;;1.10;0.90;;;4.10;98.00;;;;;;5097036;28;20520;-60
2020/12/06 09:06:22;;;;;;;1.20;1.20;;;4.10;98.00;;;;;;5095232;28;20447;-61
2020/12/06 09:08:48;;;;;;;1.20;1.10;;;4.00;98.00;;;;;;5095998;28;20874;-57
2020/12/06 09:11:16;;;;;;;3.53;2.80;;;4.10;98.00;;;;;;5094313;28;20451;-61
2020/12/06 09:13:47;;;;;;;1.67;1.20;;;4.10;98.00;;;;;;5096388;28;21019;-62
2020/12/06 09:16:15;;;;;;;1.10;1.00;;;4.20;98.00;;;;;;5091302;28;20993;-63
2020/12/06 09:18:42;;;;;;;1.10;0.90;;;4.10;98.00;;;;;;5093022;28;20455;-61
2020/12/06 09:21:09;;;;;;;1.83;1.43;;;4.30;98.00;;;;;;5091217;28;20460;-62
2020/12/06 09:23:47;;;;;;;1.77;1.67;;;4.30;98.00;;;;;;5092981;28;20696;-61
2020/12/06 09:26:14;;;;;;;1.13;0.97;;;4.30;98.00;;;;;;5089991;28;20459;-62
2020/12/06 09:28:41;;;;;;;1.67;1.30;;;4.50;98.00;;;;;;5092888;28;21013;-61
2020/12/06 09:31:08;;;;;;;2.70;2.03;;;4.70;98.00;;;;;;5089679;28;20540;-61
2020/12/06 09:33:37;;;;;;;1.20;1.00;;;6.20;98.00;;;;;;5092736;28;20488;-63
2020/12/06 09:36:04;;;;;;;2.93;2.17;;;7.80;98.00;;;;;;5091125;28;20517;-62
2020/12/06 09:38:31;;;;;;;2.80;1.40;;;9.10;98.00;;;;;;5092508;28;20452;-61
2020/12/06 09:40:57;;;;;;;4.03;1.80;;;9.30;98.00;;;;;;5090796;28;20448;-61
2020/12/06 09:43:24;;;;;;;2.43;1.73;;;8.80;98.00;;;;;;5092506;28;20509;-63
2020/12/06 09:45:51;;;;;;;1.30;1.20;;;8.10;98.00;;;;;;5092528;28;20509;-62
2020/12/06 09:48:17;;;;;;;2.60;2.40;;;7.40;98.00;;;;;;5091258;28;20947;-63
2020/12/06 09:50:44;;;;;;;2.40;1.60;;;6.90;98.00;;;;;;5092278;28;20451;-61
2020/12/06 09:53:11;;;;;;;1.40;1.20;;;6.60;98.00;;;;;;5091092;28;20455;-63
2020/12/06 09:55:38;;;;;;;2.10;1.83;;;6.60;98.00;;;;;;5092337;28;20488;-61
2020/12/06 09:58:05;;;;;;;1.53;1.40;;;6.40;98.00;;;;;;5091241;28;20490;-60
2020/12/06 10:00:31;;;;;;;1.30;1.30;;;6.20;98.00;;;;;;5091939;28;20843;-60
2020/12/06 10:02:57;;;;;;;1.30;1.20;;;6.10;98.00;;;;;;5090836;28;20456;-61
2020/12/06 10:05:24;;;;;;;1.60;1.43;;;5.90;98.00;;;;;;5090892;28;20454;-61
2020/12/06 10:07:52;;;;;;;1.20;1.13;;;5.80;98.00;;;;;;5091044;28;20834;-61
2020/12/06 10:10:19;;;;;;;1.63;1.40;;;5.70;98.00;;;;;;5092091;28;20537;-61
2020/12/06 10:12:45;;;;;;;1.40;1.20;;;5.60;98.00;;;;;;5090964;28;20453;-62
2020/12/06 10:15:12;;;;;;;2.13;1.17;;;5.40;98.00;;;;;;5092026;28;21017;-62
2020/12/06 10:17:39;;;;;;;2.13;1.60;;;5.20;98.00;;;;;;5090262;28;20788;-60
2020/12/06 10:20:05;;;;;;;2.73;1.60;;;5.20;98.00;;;;;;5091692;28;20456;-61
2020/12/06 10:22:32;;;;;;;2.90;2.60;;;5.20;98.00;;;;;;5090185;28;20462;-61
2020/12/06 10:24:59;;;;;;;1.67;1.50;;;5.10;98.00;;;;;;5091954;28;20554;-62
2020/12/06 10:27:26;;;;;;;2.13;1.50;;;4.90;98.00;;;;;;5089993;28;20819;-62
2020/12/06 10:29:52;;;;;;;1.20;1.10;;;4.80;98.00;;;;;;5091622;28;20572;-62
2020/12/06 10:32:19;;;;;;;2.50;1.20;;;4.90;98.00;;;;;;5089935;28;20533;-63
2020/12/06 10:34:45;;;;;;;1.47;1.10;;;4.90;98.00;;;;;;5091597;28;20500;-63
2020/12/06 10:37:12;;;;;;;1.20;1.10;;;4.90;98.00;;;;;;5089928;28;20484;-62
2020/12/06 10:39:39;;;;;;;1.30;1.10;;;5.10;98.00;;;;;;5091148;28;20978;-62
2020/12/06 10:42:06;;;;;;;1.83;1.70;;;5.00;98.00;;;;;;5089963;28;20458;-60
2020/12/06 10:44:32;;;;;;;1.37;1.27;;;4.80;98.00;;;;;;5091435;28;20475;-60
2020/12/06 10:46:59;;;;;;;2.30;1.40;;;4.80;98.00;;;;;;5091129;28;20494;-60
2020/12/06 10:49:25;;;;;;;4.90;2.03;;;4.90;98.00;;;;;;5089851;28;20480;-61
2020/12/06 10:51:52;;;;;;;1.53;1.40;;;5.10;98.00;;;;;;5091117;28;20449;-61
2020/12/06 10:54:18;;;;;;;1.20;1.00;;;5.20;98.00;;;;;;5089836;28;20517;-61
2020/12/06 10:56:45;;;;;;;3.00;1.97;;;5.10;98.00;;;;;;5091221;28;20515;-60
2020/12/06 10:59:12;;;;;;;1.20;1.10;;;5.20;98.00;;;;;;5089408;28;20480;-61
2020/12/06 11:01:39;;;;;;;1.10;1.00;;;5.10;98.00;;;;;;5091020;28;20456;-61
2020/12/06 11:04:07;;;;;;;1.20;1.10;;;5.20;98.00;;;;;;5089517;28;20605;-62
2020/12/06 11:06:34;;;;;;;2.60;1.87;;;5.30;98.00;;;;;;5091033;28;20445;-61
2020/12/06 11:09:01;;;;;;;1.10;1.00;;;5.10;98.00;;;;;;5089404;28;20962;-65
2020/12/06 11:11:27;;;;;;;1.70;1.60;;;5.10;98.00;;;;;;5090987;28;21003;-60
2020/12/06 11:13:54;;;;;;;1.50;1.30;;;5.30;98.00;;;;;;5089180;28;20497;-61
2020/12/06 11:16:23;;;;;;;2.23;2.03;;;5.30;98.00;;;;;;5090963;28;20846;-61
2020/12/06 11:18:50;;;;;;;2.80;1.87;;;5.20;98.00;;;;;;5089267;28;20495;-61
2020/12/06 11:21:19;;;;;;;1.40;1.20;;;5.10;98.00;;;;;;5089473;28;20465;-61
2020/12/06 11:23:49;;;;;;;1.70;1.60;;;5.00;98.00;;;;;;5089338;28;20521;-61
2020/12/06 11:26:16;;;;;;;3.00;1.50;;;5.00;98.00;;;;;;5090671;28;20449;-60
2020/12/06 11:28:45;;;;;;;3.00;2.60;;;4.90;98.00;;;;;;5089196;28;20455;-61
2020/12/06 11:31:12;;;;;;;2.50;1.57;;;4.90;98.00;;;;;;5089250;28;20448;-61
2020/12/06 11:33:47;;;;;;;2.27;2.07;;;5.00;98.00;;;;;;5089024;28;20452;-61
2020/12/06 11:36:13;;;;;;;2.43;1.93;;;5.00;98.00;;;;;;5090562;28;20483;-62
2020/12/06 11:38:42;;;;;;;1.17;1.00;;;5.10;98.00;;;;;;5089132;28;20516;-60
2020/12/06 11:41:10;;;;;;;7.33;1.67;;;5.10;98.00;;;;;;5090523;28;20547;-62
2020/12/06 11:43:36;;;;;;;1.50;1.40;;;5.20;98.00;;;;;;5089261;28;20464;-61
2020/12/06 11:46:03;;;;;;;1.47;1.37;;;5.40;98.00;;;;;;5090472;28;20464;-62
2020/12/06 11:48:30;;;;;;;1.80;1.30;;;5.50;98.00;;;;;;5088846;28;20463;-61
2020/12/06 11:50:58;;;;;;;3.07;1.87;;;5.50;98.00;;;;;;5090447;28;20870;-61
2020/12/06 11:53:24;;;;;;;4.23;2.73;;;5.70;98.00;;;;;;5088978;28;20464;-61
2020/12/06 11:55:51;;;;;;;1.20;1.10;;;5.60;98.00;;;;;;5090456;28;20564;-60
2020/12/06 11:58:17;;;;;;;2.23;1.67;;;5.60;98.00;;;;;;5088806;28;20452;-61
2020/12/06 12:00:45;;;;;;;1.40;1.40;;;5.40;98.00;;;;;;5090125;28;20514;-61
2020/12/06 12:03:11;;;;;;;2.83;2.63;;;5.30;98.00;;;;;;5088923;28;20456;-62
2020/12/06 12:05:38;;;;;;;4.00;1.63;;;5.10;98.00;;;;;;5090312;28;20460;-60
2020/12/06 12:08:05;;;;;;;1.60;1.50;;;4.90;98.00;;;;;;5089653;28;20507;-61
2020/12/06 12:10:33;;;;;;;1.10;1.00;;;4.80;98.00;;;;;;5089923;28;20486;-60
2020/12/06 12:12:59;;;;;;;2.17;2.00;;;4.60;98.00;;;;;;5090412;28;20458;-62
2020/12/06 12:15:26;;;;;;;2.67;2.50;;;4.60;98.00;;;;;;5088618;28;20489;-61
2020/12/06 12:17:52;;;;;;;1.40;1.40;;;4.50;98.00;;;;;;5090134;28;20965;-61
2020/12/06 12:20:19;;;;;;;1.73;1.27;;;4.60;98.00;;;;;;5088540;28;20478;-60
2020/12/06 12:22:45;;;;;;;1.10;1.10;;;4.60;98.00;;;;;;5090206;28;20464;-61
2020/12/06 12:25:14;;;;;;;1.40;1.30;;;4.60;98.00;;;;;;5087248;28;20950;-61
2020/12/06 12:27:41;;;;;;;2.80;1.43;;;4.70;98.00;;;;;;5090086;28;20456;-61
2020/12/06 12:30:07;;;;;;;1.10;1.00;;;4.90;98.00;;;;;;5088417;28;20460;-61
2020/12/06 12:32:35;;;;;;;1.10;1.10;;;4.90;98.00;;;;;;5090046;28;20455;-61
2020/12/06 12:35:02;;;;;;;1.10;0.90;;;4.90;98.00;;;;;;5088718;28;20448;-61
2020/12/06 12:37:29;;;;;;;1.70;1.47;;;5.00;98.00;;;;;;5089934;28;20488;-61
2020/12/06 12:39:55;;;;;;;6.10;1.87;;;5.00;98.00;;;;;;5088614;28;20802;-61
2020/12/06 12:42:23;;;;;;;1.53;1.43;;;5.20;98.00;;;;;;5089913;28;20534;-62
2020/12/06 12:44:49;;;;;;;1.10;1.00;;;5.10;98.00;;;;;;5088273;28;20958;-61
2020/12/06 12:47:17;;;;;;;1.93;1.37;;;5.10;98.00;;;;;;5089904;28;20447;-61
2020/12/06 12:49:43;;;;;;;2.07;1.83;;;5.00;98.00;;;;;;5088263;28;20543;-61
2020/12/06 12:52:11;;;;;;;1.30;1.30;;;4.90;98.00;;;;;;5093519;28;20842;-62
2020/12/06 12:54:38;;;;;;;1.30;1.17;;;4.90;98.00;;;;;;5092037;28;20470;-62
2020/12/06 12:57:05;;;;;;;1.10;1.10;;;5.30;98.00;;;;;;5093492;28;20484;-64
2020/12/06 12:59:32;;;;;;;1.20;1.07;;;5.80;98.00;;;;;;5092116;28;20452;-62
2020/12/06 13:01:59;;;;;;;1.10;1.00;;;6.00;98.00;;;;;;5093776;28;20444;-62